Time;durP1;ratioP1;P1;durP2;ratioP2;P2;SDS_P1;SDS_P2;PMS_P1;PMS_P2;Temp;Humidity;BMP_temperature;BMP_pressure;BME280_temperature;BME280_humidity;BME280_pressure;Samples;Min_cycle;Max_cycle;Signal;HPM_P1;HPM_P2
2023/05/18 00:00:43;;;;;;;8.10;5.13;;;5.70;99.90;;;;;;5003495;28;20176;-55
2023/05/18 00:03:09;;;;;;;15.43;5.30;;;5.60;99.90;;;;;;5003781;28;20259;-54
2023/05/18 00:05:35;;;;;;;9.17;5.00;;;5.60;99.90;;;;;;5006676;28;20427;-55
2023/05/18 00:08:01;;;;;;;10.63;5.37;;;5.60;99.90;;;;;;5004362;28;20191;-54
2023/05/18 00:10:27;;;;;;;9.70;5.40;;;5.60;99.90;;;;;;5002884;28;20574;-55
2023/05/18 00:12:52;;;;;;;11.70;5.07;;;5.50;99.90;;;;;;5002720;28;20729;-56
2023/05/18 00:15:18;;;;;;;10.30;5.50;;;5.50;99.90;;;;;;5005949;28;20203;-54
2023/05/18 00:17:44;;;;;;;7.03;4.87;;;5.50;99.90;;;;;;5006321;28;20172;-55
2023/05/18 00:20:10;;;;;;;10.60;5.50;;;5.50;99.90;;;;;;5003936;28;20192;-55
2023/05/18 00:22:37;;;;;;;10.53;5.33;;;5.50;99.90;;;;;;5004818;28;20463;-55
2023/05/18 00:25:03;;;;;;;12.57;5.20;;;5.50;99.90;;;;;;5001713;28;20430;-53
2023/05/18 00:27:30;;;;;;;14.67;4.80;;;5.50;99.90;;;;;;5002241;28;20439;-56
2023/05/18 00:29:55;;;;;;;12.00;5.27;;;5.50;99.90;;;;;;4997775;28;20415;-55
2023/05/18 00:32:21;;;;;;;10.13;5.70;;;5.50;99.90;;;;;;5000856;28;20462;-54
2023/05/18 00:34:47;;;;;;;9.57;4.90;;;5.50;99.90;;;;;;4995866;28;20188;-54
2023/05/18 00:37:12;;;;;;;14.00;5.50;;;5.50;99.90;;;;;;4993144;28;20176;-56
2023/05/18 00:39:38;;;;;;;10.10;4.83;;;5.50;99.90;;;;;;4998368;28;20620;-53
2023/05/18 00:42:04;;;;;;;8.67;5.77;;;5.50;99.90;;;;;;4998647;28;20297;-56
2023/05/18 00:44:29;;;;;;;10.60;6.43;;;5.40;99.90;;;;;;5003757;28;20629;-56
2023/05/18 00:46:55;;;;;;;10.67;5.70;;;5.40;99.90;;;;;;5003786;28;20435;-55
2023/05/18 00:49:21;;;;;;;11.60;5.63;;;5.40;99.90;;;;;;4996927;28;20426;-55
2023/05/18 00:51:47;;;;;;;12.50;4.90;;;5.40;99.90;;;;;;4998655;28;20199;-55
2023/05/18 00:54:14;;;;;;;13.33;5.23;;;5.40;99.90;;;;;;4998364;28;20188;-55
2023/05/18 00:56:40;;;;;;;8.97;5.00;;;5.40;99.90;;;;;;5001870;28;20510;-55
2023/05/18 00:59:09;;;;;;;8.73;4.60;;;5.40;99.90;;;;;;5000037;28;20438;-57
2023/05/18 01:01:35;;;;;;;8.63;4.73;;;5.30;99.90;;;;;;5003154;28;20426;-57
2023/05/18 01:04:02;;;;;;;13.93;5.23;;;5.30;99.90;;;;;;4996896;28;20446;-55
2023/05/18 01:06:34;;;;;;;8.90;4.93;;;5.30;99.90;;;;;;4997125;28;20525;-56
2023/05/18 01:09:03;;;;;;;9.70;4.60;;;5.30;99.90;;;;;;5001885;28;20558;-54
2023/05/18 01:11:34;;;;;;;10.63;4.87;;;5.30;99.90;;;;;;5000144;28;20423;-56
2023/05/18 01:14:05;;;;;;;8.43;5.17;;;5.30;99.90;;;;;;4999519;28;20455;-55
2023/05/18 01:16:40;;;;;;;10.83;5.40;;;5.30;99.90;;;;;;5002687;28;20911;-54
2023/05/18 01:19:27;;;;;;;8.83;5.10;;;5.30;99.90;;;;;;4999084;28;21100;-54
2023/05/18 01:22:11;;;;;;;11.20;4.80;;;5.30;99.90;;;;;;5000400;28;20940;-57
2023/05/18 01:24:47;;;;;;;9.43;5.00;;;5.30;99.90;;;;;;4998126;28;20434;-55
2023/05/18 01:27:16;;;;;;;10.23;5.83;;;5.30;99.90;;;;;;5001122;28;20517;-55
2023/05/18 01:29:44;;;;;;;14.10;5.50;;;5.30;99.90;;;;;;5000785;28;20432;-55
2023/05/18 01:32:18;;;;;;;10.77;4.70;;;5.30;99.90;;;;;;5003196;28;20529;-55
2023/05/18 01:34:44;;;;;;;10.13;5.00;;;5.30;99.90;;;;;;4998330;28;20481;-55
2023/05/18 01:37:09;;;;;;;9.03;5.23;;;5.30;99.90;;;;;;5000905;28;20431;-55
2023/05/18 01:39:35;;;;;;;10.93;6.13;;;5.30;99.90;;;;;;4998283;28;20473;-53
2023/05/18 01:42:08;;;;;;;9.70;5.53;;;5.30;99.90;;;;;;4998625;28;20251;-54
2023/05/18 01:44:39;;;;;;;12.33;5.83;;;5.30;99.90;;;;;;4998568;28;20204;-56
2023/05/18 01:47:11;;;;;;;8.70;5.53;;;5.30;99.90;;;;;;5007452;28;20526;-55
2023/05/18 01:50:07;;;;;;;7.77;4.67;;;5.30;99.90;;;;;;4999078;28;20493;-55
2023/05/18 01:53:07;;;;;;;8.67;5.30;;;5.20;99.90;;;;;;4993635;28;20549;-52
2023/05/18 01:55:35;;;;;;;9.67;5.10;;;5.20;99.90;;;;;;4978520;28;20799;-54
2023/05/18 01:58:03;;;;;;;10.77;4.93;;;5.20;99.90;;;;;;5005409;28;20446;-54
2023/05/18 02:00:29;;;;;;;13.30;5.67;;;5.20;99.90;;;;;;5005534;28;20436;-55
2023/05/18 02:02:55;;;;;;;10.43;4.93;;;5.20;99.90;;;;;;5009241;28;20496;-55
2023/05/18 02:05:21;;;;;;;10.07;4.90;;;5.20;99.90;;;;;;5008106;28;20940;-55
2023/05/18 02:07:46;;;;;;;10.07;5.40;;;5.20;99.90;;;;;;5003578;28;20657;-54
2023/05/18 02:10:12;;;;;;;7.53;5.20;;;5.20;99.90;;;;;;5007281;28;20780;-53
2023/05/18 02:12:38;;;;;;;10.13;5.13;;;5.20;99.90;;;;;;5008157;28;20235;-55
2023/05/18 02:15:04;;;;;;;9.80;4.90;;;5.20;99.90;;;;;;5002314;28;20537;-55
2023/05/18 02:17:35;;;;;;;10.47;4.10;;;5.20;99.90;;;;;;5004059;28;20238;-54
2023/05/18 02:20:01;;;;;;;5.87;4.33;;;5.20;99.90;;;;;;5006993;28;21112;-54
2023/05/18 02:22:27;;;;;;;11.77;5.47;;;5.20;99.90;;;;;;5006251;28;20478;-56
2023/05/18 02:24:53;;;;;;;11.73;5.40;;;5.20;99.90;;;;;;5007865;28;20180;-54
2023/05/18 02:27:18;;;;;;;13.20;4.97;;;5.10;99.90;;;;;;5005545;28;20718;-55
2023/05/18 02:29:44;;;;;;;11.77;4.80;;;5.10;99.90;;;;;;4998908;28;20187;-55
2023/05/18 02:32:10;;;;;;;9.80;4.60;;;5.10;99.90;;;;;;5007874;28;20219;-54
2023/05/18 02:34:37;;;;;;;7.30;4.60;;;5.10;99.90;;;;;;5006992;28;20522;-56
2023/05/18 02:37:04;;;;;;;10.10;4.80;;;5.10;99.90;;;;;;4998343;28;21146;-53
2023/05/18 02:39:30;;;;;;;7.53;4.97;;;5.10;99.90;;;;;;5002327;28;20971;-56
2023/05/18 02:41:55;;;;;;;8.87;5.23;;;5.10;99.90;;;;;;5006427;28;20467;-55
2023/05/18 02:44:21;;;;;;;11.90;5.17;;;5.10;99.90;;;;;;4999533;28;20951;-53
2023/05/18 02:46:46;;;;;;;9.23;4.53;;;5.10;99.90;;;;;;4999904;28;20280;-57
2023/05/18 02:49:12;;;;;;;9.30;5.10;;;5.10;99.90;;;;;;5001352;28;20184;-57
2023/05/18 02:51:38;;;;;;;7.80;4.97;;;5.10;99.90;;;;;;5000153;28;20196;-54
2023/05/18 02:54:03;;;;;;;9.87;5.00;;;5.10;99.90;;;;;;5000430;28;20715;-55
2023/05/18 02:56:31;;;;;;;13.03;5.30;;;5.10;99.90;;;;;;5003453;28;20184;-53
2023/05/18 02:58:59;;;;;;;7.43;5.00;;;5.10;99.90;;;;;;5002966;28;20243;-55
2023/05/18 03:01:25;;;;;;;12.33;5.77;;;5.10;99.90;;;;;;5006887;28;21332;-55
2023/05/18 03:03:58;;;;;;;12.60;5.53;;;5.10;99.90;;;;;;5002751;28;20533;-55
2023/05/18 03:06:25;;;;;;;9.70;5.30;;;5.10;99.90;;;;;;4995194;28;20489;-56
2023/05/18 03:08:53;;;;;;;7.73;5.17;;;5.20;99.90;;;;;;5002684;28;20581;-55
2023/05/18 03:11:22;;;;;;;8.17;4.57;;;5.20;99.90;;;;;;4998428;28;20995;-56
2023/05/18 03:13:48;;;;;;;14.60;4.47;;;5.20;99.90;;;;;;4999647;28;20443;-56
2023/05/18 03:16:14;;;;;;;9.20;5.53;;;5.20;99.90;;;;;;5003964;28;20423;-55
2023/05/18 03:18:40;;;;;;;8.30;5.67;;;5.30;99.90;;;;;;4994338;28;20786;-55
2023/05/18 03:21:06;;;;;;;7.43;5.23;;;5.30;99.90;;;;;;4994053;28;20435;-55
2023/05/18 03:23:33;;;;;;;10.13;4.80;;;5.30;99.90;;;;;;5000501;28;20205;-54
2023/05/18 03:26:01;;;;;;;7.10;4.60;;;5.30;99.90;;;;;;5006616;28;20453;-55
2023/05/18 03:28:27;;;;;;;8.10;5.10;;;5.30;99.90;;;;;;5002634;28;20527;-56
2023/05/18 03:30:53;;;;;;;12.53;4.73;;;5.30;99.90;;;;;;5000340;28;20436;-55
2023/05/18 03:33:19;;;;;;;13.73;5.37;;;5.30;99.90;;;;;;4999654;28;20455;-56
2023/05/18 03:35:45;;;;;;;8.90;5.00;;;5.30;99.90;;;;;;5001426;28;20495;-54
2023/05/18 03:38:10;;;;;;;13.67;5.20;;;5.30;99.90;;;;;;4999348;28;20439;-56
2023/05/18 03:40:36;;;;;;;10.50;5.27;;;5.30;99.90;;;;;;4998770;28;20188;-55
2023/05/18 03:43:02;;;;;;;7.57;4.70;;;5.40;99.90;;;;;;4999224;28;20322;-56
2023/05/18 03:45:27;;;;;;;11.90;5.43;;;5.40;99.90;;;;;;5006227;28;20180;-55
2023/05/18 03:47:53;;;;;;;8.80;5.40;;;5.50;99.90;;;;;;4999766;28;20646;-55
2023/05/18 03:50:19;;;;;;;9.73;5.40;;;5.50;99.90;;;;;;4998760;28;20185;-56
2023/05/18 03:52:44;;;;;;;10.70;5.30;;;5.50;99.90;;;;;;5003441;28;20712;-53
2023/05/18 03:55:10;;;;;;;14.23;6.33;;;5.60;99.90;;;;;;5004558;28;20645;-55
2023/05/18 03:57:36;;;;;;;11.70;5.60;;;5.60;99.90;;;;;;5004281;28;20173;-55
2023/05/18 04:00:08;;;;;;;13.77;5.93;;;5.60;99.90;;;;;;5003281;28;20449;-54
2023/05/18 04:02:33;;;;;;;7.63;4.63;;;5.60;99.50;;;;;;5001237;28;20656;-55
2023/05/18 04:04:59;;;;;;;10.13;4.70;;;5.60;99.50;;;;;;4999957;28;21090;-56
2023/05/18 04:07:25;;;;;;;12.30;5.70;;;5.60;99.00;;;;;;4996749;28;20215;-56
2023/05/18 04:09:51;;;;;;;7.97;5.17;;;5.60;98.60;;;;;;5001983;28;20462;-53
2023/05/18 04:12:17;;;;;;;11.50;4.87;;;5.60;98.40;;;;;;5004451;28;20798;-54
2023/05/18 04:14:42;;;;;;;7.97;4.43;;;5.60;97.50;;;;;;5003187;28;20176;-55
2023/05/18 04:17:08;;;;;;;14.80;5.63;;;5.60;97.50;;;;;;5002842;28;21028;-54
2023/05/18 04:19:35;;;;;;;17.03;5.13;;;5.60;98.20;;;;;;5002710;28;20195;-54
2023/05/18 04:22:04;;;;;;;11.77;5.20;;;5.60;97.80;;;;;;5002735;28;20525;-53
2023/05/18 04:24:34;;;;;;;12.70;5.70;;;5.60;97.80;;;;;;5003725;28;20446;-55
2023/05/18 04:27:01;;;;;;;13.57;5.20;;;5.70;97.90;;;;;;5001374;28;20791;-55
2023/05/18 04:29:27;;;;;;;11.67;5.47;;;5.70;97.80;;;;;;5003791;28;20641;-54
2023/05/18 04:31:58;;;;;;;9.73;4.80;;;5.70;97.90;;;;;;5000761;28;20438;-55
2023/05/18 04:34:25;;;;;;;16.63;6.23;;;5.80;98.10;;;;;;4994795;28;20439;-55
2023/05/18 04:36:53;;;;;;;8.57;4.93;;;5.80;97.60;;;;;;4999176;28;20943;-55
2023/05/18 04:39:22;;;;;;;14.90;5.13;;;5.90;96.60;;;;;;5000415;28;20490;-56
2023/05/18 04:41:57;;;;;;;11.37;4.93;;;5.90;96.00;;;;;;5004052;28;20492;-54
2023/05/18 04:44:30;;;;;;;14.80;4.90;;;6.00;95.40;;;;;;4997887;28;20426;-55
2023/05/18 04:46:56;;;;;;;10.20;5.33;;;6.00;95.00;;;;;;4999612;28;20438;-56
2023/05/18 04:49:22;;;;;;;11.20;5.07;;;6.10;95.10;;;;;;5000546;28;20574;-55
2023/05/18 04:51:54;;;;;;;12.00;4.70;;;6.20;95.00;;;;;;5002397;28;20203;-55
2023/05/18 04:54:24;;;;;;;7.70;4.70;;;6.20;93.40;;;;;;5000363;28;20466;-56
2023/05/18 04:56:50;;;;;;;10.93;5.27;;;6.30;92.90;;;;;;5003626;28;20875;-56
2023/05/18 04:59:16;;;;;;;10.70;4.97;;;6.40;92.10;;;;;;5004799;28;20462;-55
2023/05/18 05:01:42;;;;;;;10.80;4.70;;;6.50;91.80;;;;;;5000876;28;20443;-56
2023/05/18 05:04:08;;;;;;;14.70;5.47;;;6.60;91.00;;;;;;5000242;28;20266;-56
2023/05/18 05:06:33;;;;;;;12.50;5.33;;;6.60;90.00;;;;;;5003362;28;20514;-57
2023/05/18 05:08:59;;;;;;;11.10;5.07;;;6.70;88.50;;;;;;5002598;28;20179;-55
2023/05/18 05:11:24;;;;;;;9.00;4.60;;;6.80;86.00;;;;;;5000610;28;20639;-55
2023/05/18 05:13:50;;;;;;;7.40;4.93;;;6.90;84.90;;;;;;5000903;28;20270;-57
2023/05/18 05:16:16;;;;;;;9.90;4.83;;;7.00;84.50;;;;;;5003874;28;20598;-55
2023/05/18 05:18:41;;;;;;;9.43;5.00;;;7.00;82.60;;;;;;4993737;28;20192;-56
2023/05/18 05:21:08;;;;;;;8.43;4.70;;;7.10;81.60;;;;;;5001933;28;20192;-55
2023/05/18 05:23:34;;;;;;;9.03;5.10;;;7.20;79.80;;;;;;4997374;28;20760;-56
2023/05/18 05:26:00;;;;;;;8.07;4.90;;;7.20;78.80;;;;;;5002684;28;20598;-55
2023/05/18 05:28:25;;;;;;;12.40;5.23;;;7.30;78.10;;;;;;5000711;28;20218;-56
2023/05/18 05:30:51;;;;;;;9.23;4.93;;;7.40;77.10;;;;;;5001357;28;20227;-56
2023/05/18 05:33:17;;;;;;;14.03;5.23;;;7.50;77.40;;;;;;4999896;28;20204;-55
2023/05/18 05:35:43;;;;;;;12.00;5.20;;;7.60;76.30;;;;;;4996108;28;20183;-57
2023/05/18 05:38:09;;;;;;;11.97;5.37;;;7.70;76.20;;;;;;4998236;28;20427;-55
2023/05/18 05:40:34;;;;;;;8.53;5.10;;;7.80;75.30;;;;;;5001460;28;20189;-53
2023/05/18 05:43:00;;;;;;;12.63;4.90;;;7.80;74.40;;;;;;4998917;28;20219;-54
2023/05/18 05:45:27;;;;;;;10.67;5.90;;;7.90;74.60;;;;;;5004050;28;20246;-54
2023/05/18 05:47:53;;;;;;;10.37;5.50;;;7.90;75.00;;;;;;4999541;28;20176;-56
2023/05/18 05:50:19;;;;;;;15.60;6.50;;;8.00;75.20;;;;;;5000762;28;20461;-56
2023/05/18 05:52:44;;;;;;;7.10;4.83;;;8.00;75.00;;;;;;4997549;28;20532;-54
2023/05/18 05:55:10;;;;;;;10.50;5.60;;;8.00;75.00;;;;;;4999328;28;20177;-56
2023/05/18 05:57:35;;;;;;;8.87;4.93;;;8.10;75.20;;;;;;5003587;28;20238;-56
2023/05/18 06:00:03;;;;;;;8.07;5.50;;;8.20;75.10;;;;;;5003352;28;20180;-54
2023/05/18 06:02:28;;;;;;;11.47;5.00;;;8.20;74.90;;;;;;5001771;28;20735;-56
2023/05/18 06:04:54;;;;;;;12.80;5.40;;;8.30;74.60;;;;;;5002328;28;20427;-56
2023/05/18 06:07:20;;;;;;;12.33;5.47;;;8.40;74.30;;;;;;5000759;28;20264;-56
2023/05/18 06:09:45;;;;;;;13.67;5.30;;;8.50;74.00;;;;;;5010247;28;20209;-55
2023/05/18 06:12:11;;;;;;;8.47;5.33;;;8.60;72.90;;;;;;5000747;28;20208;-55
2023/05/18 06:14:37;;;;;;;8.63;5.20;;;8.70;72.10;;;;;;5002303;28;20621;-55
2023/05/18 06:17:02;;;;;;;14.13;6.30;;;8.80;71.70;;;;;;5001065;28;20291;-52
2023/05/18 06:19:28;;;;;;;17.67;7.80;;;8.90;72.10;;;;;;5000398;28;20181;-55
2023/05/18 06:21:53;;;;;;;11.90;8.20;;;8.90;72.00;;;;;;5000690;28;20286;-55
2023/05/18 06:24:19;;;;;;;21.43;6.50;;;8.90;72.20;;;;;;4995804;28;20169;-54
2023/05/18 06:26:45;;;;;;;10.10;5.10;;;8.90;72.40;;;;;;4999748;28;20254;-57
2023/05/18 06:29:10;;;;;;;10.70;6.30;;;9.00;74.30;;;;;;4996238;28;20168;-57
2023/05/18 06:31:36;;;;;;;11.83;6.20;;;9.10;75.30;;;;;;5004459;28;20590;-54
2023/05/18 06:34:02;;;;;;;11.20;6.77;;;9.30;74.90;;;;;;5005538;28;20200;-55
2023/05/18 06:36:27;;;;;;;11.03;6.80;;;9.40;74.10;;;;;;4998732;28;20704;-56
2023/05/18 06:38:53;;;;;;;14.40;6.53;;;9.50;72.40;;;;;;4996668;28;20247;-56
2023/05/18 06:41:19;;;;;;;10.50;5.67;;;9.60;71.70;;;;;;5000365;28;20233;-56
2023/05/18 06:43:45;;;;;;;9.87;6.50;;;9.70;71.40;;;;;;5003740;28;20310;-55
2023/05/18 06:46:21;;;;;;;13.23;6.27;;;9.80;70.80;;;;;;5004749;28;20439;-55
2023/05/18 06:48:47;;;;;;;12.73;6.30;;;9.80;70.50;;;;;;4996650;28;20350;-56
2023/05/18 06:51:15;;;;;;;10.53;6.13;;;9.90;69.90;;;;;;5003482;28;20675;-55
2023/05/18 06:53:40;;;;;;;8.73;5.90;;;10.00;68.60;;;;;;5006567;28;20295;-56
2023/05/18 06:56:06;;;;;;;11.40;6.57;;;10.10;68.50;;;;;;4999873;28;20554;-56
2023/05/18 06:58:33;;;;;;;10.17;5.83;;;10.20;68.20;;;;;;4988144;28;20822;-57
2023/05/18 07:00:59;;;;;;;9.77;5.60;;;10.30;67.50;;;;;;4993185;28;20438;-56
2023/05/18 07:03:25;;;;;;;10.60;6.27;;;10.40;67.40;;;;;;4991012;28;20503;-56
2023/05/18 07:05:51;;;;;;;11.87;6.07;;;10.50;67.50;;;;;;5004830;28;20537;-55
2023/05/18 07:08:16;;;;;;;11.10;6.67;;;10.50;67.80;;;;;;5005569;28;20655;-56
2023/05/18 07:10:42;;;;;;;11.63;6.80;;;10.50;67.60;;;;;;5002243;28;20173;-55
2023/05/18 07:13:07;;;;;;;9.67;6.17;;;10.60;67.00;;;;;;4997132;28;20197;-56
2023/05/18 07:15:33;;;;;;;11.17;6.87;;;10.60;67.20;;;;;;4999622;28;20188;-55
2023/05/18 07:17:59;;;;;;;10.37;6.47;;;10.70;67.00;;;;;;4995079;28;20251;-56
2023/05/18 07:20:25;;;;;;;14.90;7.20;;;10.70;67.10;;;;;;4995482;28;20188;-56
2023/05/18 07:22:51;;;;;;;13.30;5.80;;;10.80;66.50;;;;;;4997712;28;20552;-56
2023/05/18 07:25:16;;;;;;;10.30;6.77;;;10.90;66.30;;;;;;5005236;28;20427;-55
2023/05/18 07:27:42;;;;;;;12.43;5.80;;;11.00;66.30;;;;;;5005603;28;20179;-54
2023/05/18 07:30:08;;;;;;;8.70;5.07;;;11.20;66.80;;;;;;5002691;28;20181;-54
2023/05/18 07:32:34;;;;;;;11.10;5.67;;;11.30;66.50;;;;;;5007804;28;20657;-56
2023/05/18 07:34:59;;;;;;;8.90;5.90;;;11.40;65.40;;;;;;4998466;28;20431;-55
2023/05/18 07:37:25;;;;;;;9.57;5.70;;;11.60;64.90;;;;;;5000989;28;20195;-53
2023/05/18 07:39:51;;;;;;;10.27;5.50;;;11.60;64.20;;;;;;5001867;28;20527;-54
2023/05/18 07:42:16;;;;;;;11.40;6.00;;;11.50;63.70;;;;;;4994217;28;20235;-53
2023/05/18 07:44:42;;;;;;;10.13;6.00;;;11.50;63.70;;;;;;5000343;28;20466;-56
2023/05/18 07:47:08;;;;;;;9.53;5.90;;;11.50;63.30;;;;;;5000489;28;20259;-55
2023/05/18 07:49:33;;;;;;;10.47;5.70;;;11.60;63.50;;;;;;5000899;28;20184;-55
2023/05/18 07:52:01;;;;;;;14.63;5.60;;;11.60;61.70;;;;;;4997633;28;20192;-55
2023/05/18 07:54:26;;;;;;;8.97;5.03;;;11.60;61.50;;;;;;5004497;28;20238;-57
2023/05/18 07:56:52;;;;;;;7.90;5.63;;;11.70;61.30;;;;;;5001542;28;20475;-56
2023/05/18 07:59:17;;;;;;;12.07;5.93;;;11.80;60.50;;;;;;5001139;28;20263;-56
2023/05/18 08:01:44;;;;;;;12.53;5.13;;;11.90;60.80;;;;;;5001004;28;20188;-54
2023/05/18 08:04:10;;;;;;;13.73;5.20;;;12.00;61.00;;;;;;4996713;28;20179;-54
2023/05/18 08:06:35;;;;;;;9.30;5.03;;;12.10;60.30;;;;;;5002613;28;20431;-56
2023/05/18 08:09:01;;;;;;;12.53;5.10;;;12.10;59.60;;;;;;5001718;28;20194;-55
2023/05/18 08:11:26;;;;;;;8.30;4.90;;;12.20;59.70;;;;;;4993168;28;20181;-56
2023/05/18 08:13:52;;;;;;;18.03;5.30;;;12.30;59.30;;;;;;4997257;28;20346;-55
2023/05/18 08:16:18;;;;;;;15.73;5.00;;;12.30;59.40;;;;;;4999955;28;20275;-56
2023/05/18 08:18:43;;;;;;;12.20;5.10;;;12.40;59.30;;;;;;5004698;28;20181;-56
2023/05/18 08:21:09;;;;;;;7.90;4.53;;;12.50;58.90;;;;;;4998335;28;20622;-57
2023/05/18 08:23:37;;;;;;;8.60;5.20;;;12.50;58.50;;;;;;4996605;28;20318;-53
2023/05/18 08:26:03;;;;;;;11.20;4.73;;;12.50;57.70;;;;;;4994903;28;20187;-53
2023/05/18 08:28:29;;;;;;;6.63;4.00;;;12.60;57.10;;;;;;5002487;28;20815;-55
2023/05/18 08:30:55;;;;;;;9.60;4.60;;;12.70;56.60;;;;;;4993287;28;20184;-52
2023/05/18 08:33:22;;;;;;;9.73;5.33;;;12.70;56.80;;;;;;4993846;28;20577;-52
2023/05/18 08:35:48;;;;;;;11.27;4.70;;;12.80;56.30;;;;;;4999408;28;20203;-53
2023/05/18 08:38:13;;;;;;;8.73;4.33;;;12.90;56.70;;;;;;4992699;28;20478;-53
2023/05/18 08:41:02;;;;;;;8.80;4.57;;;13.00;56.50;;;;;;4999093;28;20219;-52
2023/05/18 08:43:32;;;;;;;8.90;4.50;;;13.10;55.90;;;;;;4999548;28;20674;-53
2023/05/18 08:46:04;;;;;;;10.97;5.30;;;13.20;55.20;;;;;;5000132;28;20493;-54
2023/05/18 08:48:31;;;;;;;14.23;5.40;;;13.20;54.70;;;;;;4999142;28;20468;-53
2023/05/18 08:50:59;;;;;;;10.63;4.50;;;13.30;54.40;;;;;;4997545;28;20511;-56
2023/05/18 08:53:25;;;;;;;12.77;4.70;;;13.30;54.70;;;;;;4993597;28;20465;-58
2023/05/18 08:55:56;;;;;;;7.80;4.53;;;13.40;53.60;;;;;;4997951;28;20431;-57
2023/05/18 08:58:31;;;;;;;8.87;4.50;;;13.50;53.10;;;;;;5000883;28;20497;-54
2023/05/18 09:00:57;;;;;;;8.97;4.80;;;13.50;52.80;;;;;;4998837;28;22065;-55
2023/05/18 09:03:23;;;;;;;8.20;4.30;;;13.50;52.80;;;;;;4996863;28;20463;-54
2023/05/18 09:05:51;;;;;;;17.87;5.97;;;13.60;53.20;;;;;;4997901;28;20936;-55
2023/05/18 09:08:18;;;;;;;14.87;4.53;;;13.60;53.00;;;;;;4995606;28;22154;-52
2023/05/18 09:10:44;;;;;;;8.40;4.80;;;13.70;53.50;;;;;;4995090;28;20443;-56
2023/05/18 09:13:11;;;;;;;7.13;4.87;;;13.80;54.60;;;;;;4989399;28;20447;-55
2023/05/18 09:15:36;;;;;;;9.00;4.90;;;13.90;54.50;;;;;;4990428;28;20515;-57
2023/05/18 09:18:02;;;;;;;9.80;4.73;;;14.00;52.20;;;;;;4985458;28;21467;-59
2023/05/18 09:20:28;;;;;;;7.07;3.80;;;14.00;51.50;;;;;;4994204;28;20184;-57
2023/05/18 09:22:54;;;;;;;7.17;4.07;;;14.00;51.50;;;;;;4993554;28;20228;-56
2023/05/18 09:25:21;;;;;;;9.53;4.40;;;14.10;51.70;;;;;;4993390;28;20459;-58
2023/05/18 09:27:47;;;;;;;10.60;5.40;;;14.10;51.80;;;;;;4998364;28;20264;-55
2023/05/18 09:30:13;;;;;;;7.93;4.30;;;14.10;51.10;;;;;;4997323;28;20447;-53
2023/05/18 09:32:39;;;;;;;6.00;4.23;;;14.10;51.60;;;;;;4998738;28;20462;-53
2023/05/18 09:35:06;;;;;;;7.53;4.90;;;14.20;51.50;;;;;;4992396;28;20278;-56
2023/05/18 09:37:32;;;;;;;10.37;4.90;;;14.20;51.10;;;;;;5000679;28;20700;-56
2023/05/18 09:40:04;;;;;;;10.17;4.70;;;14.20;51.70;;;;;;5000928;28;20428;-55
2023/05/18 09:42:41;;;;;;;10.67;4.50;;;14.20;51.70;;;;;;4999118;28;20470;-56
2023/05/18 09:45:18;;;;;;;11.57;4.70;;;14.10;51.20;;;;;;5001853;28;22765;-56
2023/05/18 09:47:44;;;;;;;8.40;3.90;;;14.10;50.90;;;;;;4998246;28;20438;-55
2023/05/18 09:50:10;;;;;;;9.70;4.63;;;14.10;50.90;;;;;;4997942;28;20563;-55
2023/05/18 09:52:43;;;;;;;10.73;4.60;;;14.10;51.30;;;;;;4999086;28;20597;-55
2023/05/18 09:55:19;;;;;;;9.17;4.37;;;14.20;51.70;;;;;;4999483;28;20220;-57
2023/05/18 09:57:47;;;;;;;8.33;4.23;;;14.40;50.80;;;;;;4995805;28;20459;-56
2023/05/18 10:00:17;;;;;;;7.53;4.17;;;14.60;51.00;;;;;;4995682;28;20526;-55
2023/05/18 10:02:47;;;;;;;8.20;4.23;;;14.80;51.20;;;;;;4997285;28;20466;-57
2023/05/18 10:05:26;;;;;;;7.03;3.50;;;15.00;51.90;;;;;;4995900;28;20436;-56
2023/05/18 10:07:53;;;;;;;7.10;4.73;;;15.10;51.70;;;;;;5005549;28;20442;-56
2023/05/18 10:10:25;;;;;;;11.47;5.00;;;15.20;51.60;;;;;;5001858;28;20423;-55
2023/05/18 10:12:52;;;;;;;8.07;4.40;;;15.10;51.30;;;;;;5002449;28;20447;-54
2023/05/18 10:15:20;;;;;;;7.90;4.93;;;15.00;50.90;;;;;;4998374;28;20431;-55
2023/05/18 10:17:48;;;;;;;8.93;4.67;;;14.80;51.80;;;;;;5004123;28;20462;-55
2023/05/18 10:20:18;;;;;;;6.60;3.80;;;14.70;51.20;;;;;;4998628;28;20553;-57
2023/05/18 10:22:46;;;;;;;12.37;4.77;;;14.70;50.60;;;;;;5000987;28;20466;-56
2023/05/18 10:25:21;;;;;;;9.70;4.60;;;14.80;51.20;;;;;;5005416;28;20847;-56
2023/05/18 10:27:48;;;;;;;9.13;4.00;;;15.00;51.00;;;;;;5003296;28;20505;-56
2023/05/18 10:30:16;;;;;;;7.37;3.90;;;15.10;50.70;;;;;;4993659;28;21160;-55
2023/05/18 10:32:42;;;;;;;13.00;4.63;;;15.40;52.50;;;;;;5003112;28;20443;-56
2023/05/18 10:35:09;;;;;;;8.83;4.77;;;15.70;52.10;;;;;;5003650;28;20445;-56
2023/05/18 10:37:40;;;;;;;10.30;4.00;;;15.90;51.80;;;;;;5004803;28;20431;-58
2023/05/18 10:40:07;;;;;;;11.03;3.90;;;16.10;51.20;;;;;;4995682;28;20456;-56
2023/05/18 10:42:33;;;;;;;10.60;3.80;;;16.30;51.80;;;;;;5002401;28;20491;-56
2023/05/18 10:45:00;;;;;;;9.37;4.00;;;16.30;50.90;;;;;;4998364;28;20412;-56
2023/05/18 10:47:30;;;;;;;8.23;4.20;;;16.40;51.10;;;;;;5002546;28;20431;-56
2023/05/18 10:49:59;;;;;;;7.80;4.30;;;16.50;50.00;;;;;;4997108;28;20914;-56
2023/05/18 10:52:30;;;;;;;9.20;3.93;;;16.60;49.10;;;;;;4997211;28;20462;-56
2023/05/18 10:54:59;;;;;;;7.27;4.27;;;16.70;48.60;;;;;;4997775;28;20481;-56
2023/05/18 10:57:33;;;;;;;9.63;3.97;;;16.80;50.60;;;;;;4998091;28;20952;-57
2023/05/18 10:59:59;;;;;;;9.80;3.80;;;16.70;50.60;;;;;;4998075;28;20916;-56
2023/05/18 11:02:26;;;;;;;7.20;3.70;;;16.50;49.80;;;;;;5001427;28;20467;-59
2023/05/18 11:04:53;;;;;;;8.43;3.60;;;16.20;50.60;;;;;;5000958;28;20179;-56
2023/05/18 11:07:19;;;;;;;9.33;4.00;;;16.10;50.80;;;;;;5000018;28;20507;-57
2023/05/18 11:09:48;;;;;;;7.90;4.00;;;16.20;50.60;;;;;;4997959;28;20485;-58
2023/05/18 11:12:16;;;;;;;7.77;3.60;;;16.40;52.20;;;;;;4996941;28;20443;-54
2023/05/18 11:14:51;;;;;;;5.83;3.80;;;16.50;50.50;;;;;;4991305;28;20590;-57
2023/05/18 11:17:22;;;;;;;6.37;3.73;;;16.40;49.90;;;;;;4993599;28;20946;-55
2023/05/18 11:20:03;;;;;;;6.53;3.83;;;16.30;50.10;;;;;;4995294;28;20908;-57
2023/05/18 11:22:51;;;;;;;7.03;3.53;;;16.30;49.60;;;;;;4991811;28;20459;-56
2023/05/18 11:25:31;;;;;;;6.30;3.80;;;16.40;49.30;;;;;;4997444;28;20442;-56
2023/05/18 11:28:03;;;;;;;7.00;3.30;;;16.60;48.50;;;;;;4996045;28;20431;-57
2023/05/18 11:30:32;;;;;;;9.80;3.70;;;16.80;49.40;;;;;;4996018;28;20424;-56
2023/05/18 11:33:11;;;;;;;12.60;4.03;;;17.00;49.00;;;;;;4996126;28;20499;-57
2023/05/18 11:35:56;;;;;;;6.13;3.17;;;17.00;48.90;;;;;;4999855;28;20438;-56
2023/05/18 11:38:22;;;;;;;8.00;3.77;;;16.70;47.50;;;;;;5001053;28;20543;-55
2023/05/18 11:40:49;;;;;;;7.93;3.53;;;16.50;48.10;;;;;;4996252;28;20553;-56
2023/05/18 11:43:25;;;;;;;7.13;3.23;;;16.40;48.00;;;;;;4994584;28;20560;-56
2023/05/18 11:45:55;;;;;;;6.47;3.37;;;16.50;49.20;;;;;;4997053;28;20441;-57
2023/05/18 11:48:26;;;;;;;6.70;3.63;;;16.50;48.40;;;;;;4995410;28;20434;-55
2023/05/18 11:50:55;;;;;;;5.13;3.60;;;16.40;48.90;;;;;;4993260;28;20650;-56
2023/05/18 11:53:25;;;;;;;6.03;4.10;;;16.20;48.80;;;;;;4996796;28;20599;-57
2023/05/18 11:55:55;;;;;;;7.20;4.03;;;16.10;48.40;;;;;;4994111;28;20519;-56
2023/05/18 11:58:24;;;;;;;10.17;3.87;;;16.10;49.30;;;;;;4999398;28;20493;-56
2023/05/18 12:00:50;;;;;;;9.10;3.47;;;16.10;49.80;;;;;;4995991;28;20441;-57
2023/05/18 12:03:17;;;;;;;4.40;3.20;;;16.10;50.00;;;;;;4990045;28;20455;-57
2023/05/18 12:05:48;;;;;;;6.43;3.70;;;16.10;50.00;;;;;;4995317;28;20172;-55
2023/05/18 12:08:20;;;;;;;9.83;3.83;;;15.90;48.70;;;;;;4989872;28;20512;-57
2023/05/18 12:10:47;;;;;;;6.57;3.60;;;15.70;49.10;;;;;;4998291;28;20438;-56
2023/05/18 12:13:15;;;;;;;8.37;3.77;;;15.50;49.70;;;;;;4996523;28;20456;-57
2023/05/18 12:15:41;;;;;;;7.30;4.00;;;15.20;50.20;;;;;;4987388;28;20972;-55
2023/05/18 12:18:07;;;;;;;6.00;4.10;;;15.10;50.40;;;;;;5002692;28;20442;-56
2023/05/18 12:20:34;;;;;;;6.43;3.60;;;14.90;50.60;;;;;;4992398;28;20435;-56
2023/05/18 12:23:00;;;;;;;8.57;4.07;;;14.80;50.80;;;;;;4998932;28;20204;-55
2023/05/18 12:25:26;;;;;;;10.13;4.23;;;14.80;51.20;;;;;;4999889;28;20443;-56
2023/05/18 12:27:53;;;;;;;8.20;3.83;;;14.70;51.60;;;;;;4997912;28;20428;-56
2023/05/18 12:30:21;;;;;;;6.60;3.40;;;14.70;51.80;;;;;;4998258;28;20451;-57
2023/05/18 12:32:53;;;;;;;7.40;3.80;;;14.70;52.80;;;;;;4993988;28;20490;-55
2023/05/18 12:35:22;;;;;;;6.33;3.73;;;14.60;52.80;;;;;;4994248;28;20508;-56
2023/05/18 12:37:48;;;;;;;7.73;4.10;;;14.70;52.60;;;;;;4996394;28;20440;-57
2023/05/18 12:40:16;;;;;;;5.93;3.60;;;14.70;52.50;;;;;;4994301;28;20428;-55
2023/05/18 12:43:01;;;;;;;7.83;3.93;;;14.60;53.10;;;;;;4995801;28;21025;-56
2023/05/18 12:45:32;;;;;;;8.50;4.17;;;14.50;52.90;;;;;;5000531;28;20432;-57
2023/05/18 12:48:08;;;;;;;8.10;4.07;;;14.50;53.30;;;;;;4999290;28;20503;-57
2023/05/18 12:50:35;;;;;;;11.27;4.20;;;14.40;53.20;;;;;;4985642;28;20451;-58